createdAt,value
2018-05-15T00:03:40.884Z,16.20
2018-05-15T00:07:43.528Z,16.20
2018-05-15T00:11:46.933Z,16.00
2018-05-15T00:15:50.383Z,15.90
2018-05-15T00:19:53.016Z,15.90
2018-05-15T00:23:55.720Z,15.90
2018-05-15T00:27:59.125Z,15.70
2018-05-15T00:32:02.536Z,15.70
2018-05-15T00:36:05.959Z,15.60
2018-05-15T00:40:08.605Z,15.60
2018-05-15T00:44:11.307Z,15.60
2018-05-15T00:48:13.908Z,15.50
2018-05-15T00:52:17.317Z,15.40
2018-05-15T00:56:20.685Z,15.30
2018-05-15T01:00:23.439Z,15.30
2018-05-15T01:04:26.081Z,15.30
2018-05-15T01:08:28.715Z,15.20
2018-05-15T01:12:31.348Z,15.20
2018-05-15T01:16:33.952Z,15.10
2018-05-15T01:20:36.625Z,15.10
2018-05-15T01:24:39.304Z,15.00
2018-05-15T01:28:41.944Z,15.00
2018-05-15T01:32:44.640Z,14.90
2018-05-15T01:36:47.237Z,14.90
2018-05-15T01:40:49.876Z,14.80
2018-05-15T01:44:52.589Z,14.70
2018-05-15T01:48:55.185Z,14.70
2018-05-15T01:52:57.815Z,14.60
2018-05-15T01:57:00.429Z,14.60
2018-05-15T02:01:03.072Z,14.50
2018-05-15T02:05:05.700Z,14.50
2018-05-15T02:09:08.348Z,14.40
2018-05-15T02:13:10.988Z,14.40
2018-05-15T02:17:14.357Z,14.30
2018-05-15T02:21:17.002Z,14.20
2018-05-15T02:25:19.640Z,14.20
2018-05-15T02:29:22.332Z,14.20
2018-05-15T02:33:24.973Z,14.10
2018-05-15T02:37:27.578Z,14.00
2018-05-15T02:41:30.217Z,14.00
2018-05-15T02:45:32.865Z,13.90
2018-05-15T02:49:35.508Z,13.90
2018-05-15T02:53:38.919Z,13.80
2018-05-15T02:57:42.289Z,13.70
2018-05-15T03:01:44.928Z,13.70
2018-05-15T03:05:47.569Z,13.70
2018-05-15T03:09:50.204Z,13.60
2018-05-15T03:13:52.844Z,13.60
2018-05-15T03:17:55.464Z,13.60
2018-05-15T03:21:58.128Z,13.50
2018-05-15T03:26:00.766Z,13.50
2018-05-15T03:30:03.413Z,13.50
2018-05-15T03:34:06.140Z,13.40
2018-05-15T03:38:08.738Z,13.40
2018-05-15T03:42:11.383Z,13.30
2018-05-15T03:46:14.782Z,13.30
2018-05-15T03:50:17.480Z,13.20
2018-05-15T03:54:20.885Z,13.20
2018-05-15T03:58:24.255Z,13.20
2018-05-15T04:02:38.731Z,13.20
2018-05-15T04:06:53.217Z,13.20
2018-05-15T04:10:56.737Z,13.20
2018-05-15T04:14:59.349Z,13.10
2018-05-15T04:19:01.946Z,13.20
2018-05-15T04:23:04.584Z,13.20
2018-05-15T04:27:07.220Z,13.20
2018-05-15T04:31:09.905Z,13.20
2018-05-15T04:35:12.643Z,13.20
2018-05-15T04:39:15.211Z,13.20
2018-05-15T04:43:17.904Z,13.20
2018-05-15T04:47:20.609Z,13.20
2018-05-15T04:51:23.247Z,13.20
2018-05-15T04:55:25.880Z,13.20
2018-05-15T04:59:28.549Z,13.20
2018-05-15T05:03:31.220Z,13.30
2018-05-15T05:07:33.861Z,13.30
2018-05-15T05:11:36.506Z,13.30
2018-05-15T05:15:39.148Z,13.40
2018-05-15T05:19:42.531Z,13.50
2018-05-15T05:23:45.167Z,13.40
2018-05-15T05:27:47.800Z,13.50
2018-05-15T05:31:51.234Z,13.60
2018-05-15T05:35:54.644Z,13.70
2018-05-15T05:39:58.138Z,13.70
2018-05-15T05:44:00.763Z,13.70
2018-05-15T05:48:03.408Z,13.80
2018-05-15T05:52:06.137Z,13.90
2018-05-15T05:56:08.720Z,14.00
2018-05-15T06:00:11.320Z,14.00
2018-05-15T06:04:13.952Z,14.10
2018-05-15T06:08:16.589Z,14.20
2018-05-15T06:12:19.231Z,14.30
2018-05-15T06:16:21.868Z,14.40
2018-05-15T06:20:24.471Z,14.50
2018-05-15T06:24:27.112Z,14.60
2018-05-15T06:28:30.572Z,15.20
2018-05-15T06:32:33.210Z,15.80
2018-05-15T06:36:36.678Z,17.70
2018-05-15T06:40:39.339Z,17.60
2018-05-15T06:44:42.023Z,19.30
2018-05-15T06:48:45.468Z,21.90
2018-05-15T06:52:48.169Z,21.80
2018-05-15T06:56:50.808Z,22.90
2018-05-15T07:00:53.404Z,23.40
2018-05-15T07:04:56.044Z,24.00
2018-05-15T07:08:58.687Z,24.70
2018-05-15T07:13:01.328Z,25.50
2018-05-15T07:17:03.971Z,26.40
2018-05-15T07:21:06.567Z,26.80
2018-05-15T07:25:09.212Z,27.00
2018-05-15T07:29:12.620Z,27.30
2018-05-15T07:33:16.139Z,27.60
2018-05-15T07:37:18.688Z,27.50
2018-05-15T07:41:21.452Z,27.90
2018-05-15T07:45:24.102Z,28.10
2018-05-15T07:49:26.773Z,28.40
2018-05-15T07:53:30.179Z,28.90
2018-05-15T07:57:33.581Z,29.20
2018-05-15T08:01:36.224Z,29.10
2018-05-15T08:05:38.860Z,29.50
2018-05-15T08:09:42.259Z,29.90
2018-05-15T08:13:44.884Z,29.80
2018-05-15T08:17:47.516Z,29.90
2018-05-15T08:21:50.123Z,29.90
2018-05-15T08:25:52.754Z,29.90
2018-05-15T08:29:55.500Z,29.80
2018-05-15T08:33:58.141Z,29.80
2018-05-15T08:38:00.831Z,29.80
2018-05-15T08:42:03.436Z,29.70
2018-05-15T08:46:06.075Z,29.70
2018-05-15T08:50:08.702Z,29.60
2018-05-15T08:54:11.332Z,29.40
2018-05-15T08:58:14.732Z,28.90
2018-05-15T09:02:17.336Z,28.90
2018-05-15T09:06:20.744Z,28.10
2018-05-15T09:10:23.380Z,28.00
2018-05-15T09:14:26.020Z,27.60
2018-05-15T09:18:29.476Z,26.80
2018-05-15T09:22:32.073Z,26.70
2018-05-15T09:26:34.709Z,26.40
2018-05-15T09:30:37.350Z,26.20
2018-05-15T09:34:39.989Z,26.00
2018-05-15T09:38:42.616Z,25.80
2018-05-15T09:42:45.225Z,25.70
2018-05-15T09:46:47.919Z,25.60
2018-05-15T09:50:50.521Z,25.50
2018-05-15T09:54:53.926Z,25.30
2018-05-15T09:58:57.324Z,25.30
2018-05-15T10:03:00.005Z,25.20
2018-05-15T10:07:02.639Z,25.20
2018-05-15T10:11:05.270Z,25.20
2018-05-15T10:15:07.906Z,25.20
2018-05-15T10:19:10.545Z,25.20
2018-05-15T10:23:13.151Z,25.10
2018-05-15T10:27:15.790Z,25.00
2018-05-15T10:31:18.423Z,25.00
2018-05-15T10:35:21.828Z,24.90
2018-05-15T10:39:24.460Z,24.90
2018-05-15T10:43:27.057Z,24.90
2018-05-15T10:47:29.689Z,24.90
2018-05-15T10:51:32.329Z,24.90
2018-05-15T10:55:34.957Z,24.90
2018-05-15T10:59:37.676Z,24.90
2018-05-15T11:03:40.281Z,24.90
2018-05-15T11:07:42.922Z,24.90
2018-05-15T11:11:45.558Z,25.00
2018-05-15T11:15:48.253Z,25.00
2018-05-15T11:20:02.791Z,25.10
2018-05-15T11:28:43.904Z,25.20
2018-05-15T11:32:47.300Z,25.30
2018-05-15T11:36:50.019Z,25.30
2018-05-15T11:40:52.748Z,25.30
2018-05-15T11:49:03.159Z,25.40
2018-05-15T11:53:05.953Z,25.40
2018-05-15T11:57:07.824Z,25.50
2018-05-15T12:01:10.521Z,25.60
2018-05-15T12:05:13.951Z,25.70
2018-05-15T12:09:17.353Z,25.70
2018-05-15T12:13:20.816Z,25.60
2018-05-15T12:17:23.461Z,25.60
2018-05-15T12:21:26.878Z,25.40
2018-05-15T12:25:29.584Z,25.30
2018-05-15T12:29:32.214Z,25.30
2018-05-15T12:33:34.861Z,25.30
2018-05-15T12:37:37.510Z,25.30
2018-05-15T12:41:40.941Z,25.30
2018-05-15T12:45:43.629Z,25.20
2018-05-15T12:49:46.224Z,25.20
2018-05-15T12:53:48.861Z,25.20
2018-05-15T12:57:51.506Z,25.10
2018-05-15T13:01:54.194Z,25.00
2018-05-15T13:05:56.827Z,25.00
2018-05-15T13:09:59.426Z,25.00
2018-05-15T13:14:02.100Z,25.10
2018-05-15T13:18:04.731Z,25.20
2018-05-15T13:22:07.377Z,25.40
2018-05-15T13:26:10.089Z,25.60
2018-05-15T13:30:13.452Z,25.80
2018-05-15T13:34:16.097Z,25.80
2018-05-15T13:38:19.498Z,25.90
2018-05-15T13:42:22.948Z,26.00
2018-05-15T13:46:25.608Z,26.00
2018-05-15T13:50:28.272Z,26.10
2018-05-15T13:54:30.937Z,26.10
2018-05-15T13:58:33.625Z,26.00
2018-05-15T14:02:36.274Z,25.90
2018-05-15T14:06:39.007Z,25.80
2018-05-15T14:10:41.569Z,25.70
2018-05-15T14:14:44.213Z,25.80
2018-05-15T14:18:47.621Z,26.00
2018-05-15T14:22:51.022Z,26.10
2018-05-15T14:26:54.429Z,26.20
2018-05-15T14:30:57.808Z,26.40
2018-05-15T14:35:00.498Z,26.30
2018-05-15T14:39:03.138Z,26.40
2018-05-15T14:47:37.059Z,26.60
2018-05-15T14:51:40.429Z,26.70
2018-05-15T14:55:43.073Z,26.70
2018-05-15T14:59:45.708Z,26.60
2018-05-15T15:03:48.348Z,26.50
2018-05-15T15:07:50.981Z,26.40
2018-05-15T15:11:53.636Z,26.40
2018-05-15T15:15:56.277Z,26.50
2018-05-15T15:19:58.908Z,26.60
2018-05-15T15:24:01.545Z,26.70
2018-05-15T15:28:04.190Z,26.70
2018-05-15T15:32:06.791Z,26.80
2018-05-15T15:36:09.433Z,26.70
2018-05-15T15:40:12.828Z,26.60
2018-05-15T15:44:15.469Z,26.60
2018-05-15T15:48:18.099Z,26.50
2018-05-15T15:52:20.761Z,26.40
2018-05-15T15:56:23.392Z,26.40
2018-05-15T16:00:26.804Z,26.20
2018-05-15T16:04:30.201Z,26.20
2018-05-15T16:08:33.694Z,26.10
2018-05-15T16:12:36.226Z,26.00
2018-05-15T16:20:38.265Z,25.90
2018-05-15T16:24:40.912Z,25.80
2018-05-15T16:28:43.570Z,25.80
2018-05-15T16:32:46.944Z,25.60
2018-05-15T16:36:49.639Z,25.60
2018-05-15T16:40:52.280Z,25.60
2018-05-15T16:44:54.916Z,25.50
2018-05-15T16:48:57.561Z,25.40
2018-05-15T16:53:00.168Z,25.40
2018-05-15T16:57:02.863Z,25.30
2018-05-15T17:05:02.952Z,25.10
2018-05-15T17:09:06.341Z,25.00
2018-05-15T17:13:09.066Z,25.00
2018-05-15T17:17:11.735Z,24.90
2018-05-15T17:21:14.419Z,24.90
2018-05-15T17:25:17.112Z,24.80
2018-05-15T17:29:19.748Z,24.70
2018-05-15T17:33:22.408Z,24.70
2018-05-15T17:37:25.814Z,24.70
2018-05-15T17:41:29.264Z,24.70
2018-05-15T17:45:31.902Z,24.60
2018-05-15T17:49:35.311Z,24.50
2018-05-15T17:53:38.743Z,24.50
2018-05-15T17:57:41.435Z,24.40
2018-05-15T18:01:44.120Z,24.40
2018-05-15T18:05:46.752Z,24.30
2018-05-15T18:09:49.392Z,24.30
2018-05-15T18:13:51.993Z,24.20
2018-05-15T18:17:54.641Z,24.10
2018-05-15T18:21:57.301Z,24.10
2018-05-15T18:25:59.941Z,24.00
2018-05-15T18:30:02.635Z,23.90
2018-05-15T18:34:05.235Z,23.80
2018-05-15T18:38:07.873Z,23.70
2018-05-15T18:42:10.505Z,23.60
2018-05-15T18:46:13.139Z,23.50
2018-05-15T18:50:16.616Z,23.30
2018-05-15T18:54:19.228Z,23.30
2018-05-15T18:58:21.872Z,23.20
2018-05-15T19:02:24.511Z,23.00
2018-05-15T19:06:27.156Z,22.70
2018-05-15T19:10:29.874Z,22.50
2018-05-15T19:14:32.488Z,22.30
2018-05-15T19:18:35.186Z,22.00
2018-05-15T19:22:38.650Z,21.60
2018-05-15T19:26:41.340Z,21.50
2018-05-15T19:30:43.972Z,21.40
2018-05-15T19:34:53.029Z,21.20
2018-05-15T19:39:01.343Z,21.10
2018-05-15T19:43:04.749Z,20.90
2018-05-15T19:47:08.157Z,20.80
2018-05-15T19:51:11.568Z,20.70
2018-05-15T19:55:14.193Z,20.60
2018-05-15T19:59:16.823Z,20.60
2018-05-15T20:03:20.227Z,20.40
2018-05-15T20:07:22.860Z,20.30
2018-05-15T20:11:25.534Z,20.30
2018-05-15T20:15:28.148Z,20.30
2018-05-15T20:19:30.785Z,20.20
2018-05-15T20:23:34.188Z,20.10
2018-05-15T20:27:36.879Z,20.00
2018-05-15T20:31:40.286Z,20.00
2018-05-15T20:35:43.653Z,19.90
2018-05-15T20:39:46.294Z,19.90
2018-05-15T20:43:49.696Z,19.90
2018-05-15T20:47:53.109Z,19.80
2018-05-15T20:51:56.522Z,19.70
2018-05-15T20:55:59.200Z,19.70
2018-05-15T21:00:02.665Z,19.60
2018-05-15T21:04:05.305Z,19.60
2018-05-15T21:08:07.939Z,19.50
2018-05-15T21:12:10.632Z,19.50
2018-05-15T21:16:13.233Z,19.40
2018-05-15T21:20:15.873Z,19.30
2018-05-15T21:24:18.508Z,19.20
2018-05-15T21:28:21.145Z,19.20
2018-05-15T21:32:23.837Z,19.10
2018-05-15T21:36:26.620Z,18.90
2018-05-15T21:40:29.251Z,18.80
2018-05-15T21:44:32.685Z,18.50
2018-05-15T21:48:35.316Z,18.50
2018-05-15T21:52:38.010Z,18.40
2018-05-15T21:56:41.352Z,18.20
2018-05-15T22:00:44.036Z,18.20
2018-05-15T22:04:46.686Z,18.10
2018-05-15T22:08:49.384Z,18.10
2018-05-15T22:13:03.801Z,17.90
2018-05-15T22:17:18.974Z,17.70
2018-05-15T22:21:33.402Z,17.60
2018-05-15T22:25:36.032Z,17.50
2018-05-15T22:29:38.664Z,17.40
2018-05-15T22:33:41.299Z,17.30
2018-05-15T22:37:43.932Z,17.20
2018-05-15T22:41:46.538Z,17.10
2018-05-15T22:45:49.171Z,17.10
2018-05-15T22:49:51.844Z,17.00
2018-05-15T22:53:54.541Z,17.00
2018-05-15T22:57:57.976Z,16.90
2018-05-15T23:02:00.583Z,16.90
2018-05-15T23:06:03.212Z,16.90
2018-05-15T23:10:05.911Z,16.90
2018-05-15T23:14:08.588Z,17.00
2018-05-15T23:18:11.212Z,17.00
2018-05-15T23:22:26.341Z,16.90
2018-05-15T23:26:28.984Z,16.90
2018-05-15T23:30:32.380Z,16.90
2018-05-15T23:34:35.782Z,16.80
2018-05-15T23:38:38.420Z,16.80
2018-05-15T23:42:41.024Z,16.80
2018-05-15T23:46:43.661Z,16.80
2018-05-15T23:50:47.064Z,16.80
2018-05-15T23:54:50.576Z,16.70
2018-05-15T23:58:53.980Z,16.70
